Time;durP1;ratioP1;P1;durP2;ratioP2;P2;SDS_P1;SDS_P2;PMS_P1;PMS_P2;Temp;Humidity;BMP_temperature;BMP_pressure;BME280_temperature;BME280_humidity;BME280_pressure;Samples;Min_cycle;Max_cycle;Signal;HPM_P1;HPM_P2
2021/12/31 00:01:25;;;;;;;;;;;21.40;47.80;;;;;;1568227;76;812;-65
2021/12/31 00:03:27;;;;;;;;;;;21.40;47.80;;;;;;1568170;74;1451;-65
2021/12/31 00:05:29;;;;;;;;;;;21.40;47.80;;;;;;1567999;76;787;-65
2021/12/31 00:07:31;;;;;;;;;;;21.30;47.80;;;;;;1568228;76;724;-65
2021/12/31 00:09:33;;;;;;;;;;;21.40;47.80;;;;;;1568176;76;793;-65
2021/12/31 00:11:35;;;;;;;;;;;21.40;47.80;;;;;;1568187;76;716;-65
2021/12/31 00:13:37;;;;;;;;;;;21.50;48.10;;;;;;1568153;76;1122;-65
2021/12/31 00:15:39;;;;;;;;;;;21.40;47.80;;;;;;1568062;76;1911;-65
2021/12/31 00:17:41;;;;;;;;;;;21.30;47.80;;;;;;1568253;76;764;-65
2021/12/31 00:19:45;;;;;;;;;;;21.30;47.90;;;;;;1568207;76;644;-65
2021/12/31 00:21:48;;;;;;;;;;;21.40;47.90;;;;;;1567978;76;1441;-65
2021/12/31 00:23:50;;;;;;;;;;;21.30;47.90;;;;;;1568065;76;1359;-65
2021/12/31 00:25:52;;;;;;;;;;;21.40;47.90;;;;;;1568016;76;691;-65
2021/12/31 00:27:54;;;;;;;;;;;21.40;47.80;;;;;;1568219;76;862;-64
2021/12/31 00:29:56;;;;;;;;;;;21.40;47.90;;;;;;1568142;76;707;-65
2021/12/31 00:31:58;;;;;;;;;;;21.30;47.90;;;;;;1568069;76;663;-65
2021/12/31 00:34:00;;;;;;;;;;;21.40;47.80;;;;;;1568132;76;1081;-64
2021/12/31 00:36:02;;;;;;;;;;;21.40;47.80;;;;;;1568070;76;1928;-65
2021/12/31 00:38:06;;;;;;;;;;;21.40;47.80;;;;;;1568227;76;701;-65
2021/12/31 00:40:09;;;;;;;;;;;21.40;47.90;;;;;;1568200;76;2078;-65
2021/12/31 00:42:10;;;;;;;;;;;21.40;47.90;;;;;;1568076;76;715;-65
2021/12/31 00:44:12;;;;;;;;;;;21.40;47.90;;;;;;1568224;76;1121;-65
2021/12/31 00:46:14;;;;;;;;;;;21.40;47.90;;;;;;1562987;75;813;-66
2021/12/31 00:48:16;;;;;;;;;;;21.40;47.90;;;;;;1563099;76;723;-65
2021/12/31 00:50:18;;;;;;;;;;;21.40;48.00;;;;;;1563113;76;727;-65
2021/12/31 00:52:20;;;;;;;;;;;21.50;48.00;;;;;;1563040;76;780;-65
2021/12/31 00:54:22;;;;;;;;;;;21.40;48.00;;;;;;1563143;76;1170;-65
2021/12/31 00:56:23;;;;;;;;;;;21.40;47.90;;;;;;1562931;76;1927;-65
2021/12/31 00:58:25;;;;;;;;;;;21.30;48.00;;;;;;1563119;76;668;-65
2021/12/31 01:00:28;;;;;;;;;;;21.40;48.00;;;;;;1563102;76;773;-65
2021/12/31 01:02:30;;;;;;;;;;;21.30;47.90;;;;;;1562952;76;779;-65
2021/12/31 01:04:32;;;;;;;;;;;21.40;48.00;;;;;;1563098;76;1113;-65
2021/12/31 01:06:34;;;;;;;;;;;21.40;47.90;;;;;;1562981;76;714;-65
2021/12/31 01:08:36;;;;;;;;;;;21.40;47.90;;;;;;1562996;76;711;-65
2021/12/31 01:10:38;;;;;;;;;;;21.40;48.00;;;;;;1563080;76;794;-65
2021/12/31 01:12:40;;;;;;;;;;;21.40;48.00;;;;;;1562995;76;731;-66
2021/12/31 01:14:58;;;;;;;;;;;21.30;48.00;;;;;;1562947;75;1117;-65
2021/12/31 01:17:01;;;;;;;;;;;21.40;47.90;;;;;;1562463;75;1931;-64
2021/12/31 01:21:05;;;;;;;;;;;21.40;48.00;;;;;;1563040;76;867;-65
2021/12/31 01:23:09;;;;;;;;;;;21.40;48.00;;;;;;1562990;75;1201;-65
2021/12/31 01:25:10;;;;;;;;;;;21.40;48.00;;;;;;1562929;76;727;-65
2021/12/31 01:27:13;;;;;;;;;;;21.50;48.10;;;;;;1562917;75;784;-65
2021/12/31 01:29:14;;;;;;;;;;;21.40;47.90;;;;;;1563018;76;725;-65
2021/12/31 01:31:16;;;;;;;;;;;21.30;47.90;;;;;;1563199;75;781;-65
2021/12/31 01:33:18;;;;;;;;;;;21.40;47.90;;;;;;1562961;75;1139;-65
2021/12/31 01:35:20;;;;;;;;;;;21.40;47.90;;;;;;1563023;76;704;-65
2021/12/31 01:37:22;;;;;;;;;;;21.40;47.90;;;;;;1562880;76;1936;-65
2021/12/31 01:39:24;;;;;;;;;;;21.40;47.90;;;;;;1563089;76;766;-65
2021/12/31 01:41:26;;;;;;;;;;;21.40;47.90;;;;;;1563069;76;734;-66
2021/12/31 01:43:28;;;;;;;;;;;21.40;47.90;;;;;;1562908;75;1115;-66
2021/12/31 01:45:33;;;;;;;;;;;21.40;47.90;;;;;;1562898;76;763;-64
2021/12/31 01:47:35;;;;;;;;;;;21.30;47.90;;;;;;1562630;75;1585;-65
2021/12/31 01:49:39;;;;;;;;;;;21.40;47.90;;;;;;1563001;76;2128;-64
2021/12/31 01:51:40;;;;;;;;;;;21.30;47.90;;;;;;1562807;75;1643;-66
2021/12/31 01:53:42;;;;;;;;;;;21.30;48.00;;;;;;1562920;75;1178;-65
2021/12/31 01:55:44;;;;;;;;;;;21.30;48.00;;;;;;1563025;76;686;-65
2021/12/31 01:57:46;;;;;;;;;;;21.30;47.90;;;;;;1562910;76;1946;-65
2021/12/31 01:59:48;;;;;;;;;;;21.40;48.00;;;;;;1563082;76;696;-65
2021/12/31 02:01:49;;;;;;;;;;;21.40;48.00;;;;;;1563071;76;711;-64
2021/12/31 02:03:52;;;;;;;;;;;21.30;48.00;;;;;;1563075;75;1160;-65
2021/12/31 02:05:54;;;;;;;;;;;21.40;48.00;;;;;;1562997;76;700;-65
2021/12/31 02:07:56;;;;;;;;;;;21.40;47.90;;;;;;1563179;76;645;-65
2021/12/31 02:09:57;;;;;;;;;;;21.40;48.00;;;;;;1563192;76;648;-65
2021/12/31 02:11:59;;;;;;;;;;;21.40;48.00;;;;;;1563079;76;899;-67
2021/12/31 02:14:02;;;;;;;;;;;21.40;48.00;;;;;;1562996;76;1169;-65
2021/12/31 02:16:04;;;;;;;;;;;21.40;47.90;;;;;;1562967;76;840;-66
2021/12/31 02:18:09;;;;;;;;;;;21.40;48.00;;;;;;1563001;76;1938;-66
2021/12/31 02:20:09;;;;;;;;;;;21.30;47.90;;;;;;1562672;76;1143;-65
2021/12/31 02:22:11;;;;;;;;;;;21.30;48.00;;;;;;1563119;76;796;-65
2021/12/31 02:24:14;;;;;;;;;;;21.40;48.00;;;;;;1563114;76;1115;-65
2021/12/31 02:26:15;;;;;;;;;;;21.40;48.00;;;;;;1563006;76;731;-65
2021/12/31 02:28:22;;;;;;;;;;;21.40;48.00;;;;;;1563135;76;707;-65
2021/12/31 02:30:21;;;;;;;;;;;21.30;48.00;;;;;;1562287;76;913;-65
2021/12/31 02:32:23;;;;;;;;;;;21.30;48.00;;;;;;1563144;76;765;-65
2021/12/31 02:34:25;;;;;;;;;;;21.40;48.00;;;;;;1563070;76;1118;-65
2021/12/31 02:36:26;;;;;;;;;;;21.40;48.00;;;;;;1563058;76;1942;-65
2021/12/31 02:38:28;;;;;;;;;;;21.40;48.00;;;;;;1563204;76;682;-65
2021/12/31 02:40:30;;;;;;;;;;;21.30;47.90;;;;;;1563014;76;764;-65
2021/12/31 02:42:32;;;;;;;;;;;21.30;47.90;;;;;;1563083;76;731;-64
2021/12/31 02:44:34;;;;;;;;;;;21.40;47.90;;;;;;1563171;76;1119;-65
2021/12/31 02:46:36;;;;;;;;;;;21.40;47.90;;;;;;1563000;76;801;-65
2021/12/31 02:48:38;;;;;;;;;;;21.40;47.90;;;;;;1563189;76;667;-65
2021/12/31 02:50:40;;;;;;;;;;;21.40;47.90;;;;;;1563094;76;785;-65
2021/12/31 02:52:42;;;;;;;;;;;21.30;47.90;;;;;;1563054;76;737;-65
2021/12/31 02:54:47;;;;;;;;;;;21.40;48.00;;;;;;1563040;76;1103;-66
2021/12/31 02:56:49;;;;;;;;;;;21.40;47.90;;;;;;1563039;76;1927;-65
2021/12/31 02:58:51;;;;;;;;;;;21.40;47.90;;;;;;1563075;76;780;-65
2021/12/31 03:00:53;;;;;;;;;;;21.40;47.90;;;;;;1563030;76;778;-65
2021/12/31 03:02:55;;;;;;;;;;;21.30;47.90;;;;;;1563165;76;710;-65
2021/12/31 03:04:58;;;;;;;;;;;21.30;48.00;;;;;;1562896;76;1247;-64
2021/12/31 03:07:00;;;;;;;;;;;21.40;48.00;;;;;;1563044;76;707;-65
2021/12/31 03:09:02;;;;;;;;;;;21.40;48.00;;;;;;1563114;76;757;-65
2021/12/31 03:11:04;;;;;;;;;;;21.30;48.00;;;;;;1563040;76;735;-65
2021/12/31 03:13:07;;;;;;;;;;;21.30;48.00;;;;;;1563058;75;1131;-65
2021/12/31 03:15:09;;;;;;;;;;;21.40;48.00;;;;;;1562929;76;713;-66
2021/12/31 03:17:11;;;;;;;;;;;21.30;47.90;;;;;;1563030;76;1930;-65
2021/12/31 03:19:13;;;;;;;;;;;21.40;47.90;;;;;;1563161;75;732;-65
2021/12/31 03:21:21;;;;;;;;;;;21.30;48.00;;;;;;1563012;76;785;-65
2021/12/31 03:23:19;;;;;;;;;;;21.40;47.90;;;;;;1562438;75;1155;-65
2021/12/31 03:25:20;;;;;;;;;;;21.40;48.00;;;;;;1563055;76;665;-65
2021/12/31 03:27:22;;;;;;;;;;;21.40;48.00;;;;;;1563048;76;698;-65
2021/12/31 03:29:24;;;;;;;;;;;21.40;48.00;;;;;;1563153;76;695;-66
2021/12/31 03:31:26;;;;;;;;;;;21.40;48.00;;;;;;1563075;76;786;-65
2021/12/31 03:33:28;;;;;;;;;;;21.40;48.00;;;;;;1563139;75;1121;-65
2021/12/31 03:35:30;;;;;;;;;;;21.30;48.00;;;;;;1563031;76;718;-65
2021/12/31 03:37:32;;;;;;;;;;;21.40;48.00;;;;;;1563011;76;1928;-65
2021/12/31 03:39:33;;;;;;;;;;;21.40;48.00;;;;;;1563152;76;781;-65
2021/12/31 03:41:35;;;;;;;;;;;21.40;47.90;;;;;;1563049;76;711;-65
2021/12/31 03:43:37;;;;;;;;;;;21.40;47.90;;;;;;1563005;75;1144;-61
2021/12/31 03:45:40;;;;;;;;;;;21.40;47.90;;;;;;1563084;76;708;-66
2021/12/31 03:47:42;;;;;;;;;;;21.40;47.90;;;;;;1562982;76;788;-65
2021/12/31 03:49:44;;;;;;;;;;;21.40;47.90;;;;;;1563105;76;700;-65
2021/12/31 03:51:46;;;;;;;;;;;21.40;47.90;;;;;;1562921;76;692;-67
2021/12/31 03:53:48;;;;;;;;;;;21.40;47.90;;;;;;1557781;75;1232;-65
2021/12/31 03:55:49;;;;;;;;;;;21.40;47.90;;;;;;1541783;76;696;-65
2021/12/31 03:57:51;;;;;;;;;;;21.40;47.90;;;;;;1526560;77;1948;-65
2021/12/31 03:59:54;;;;;;;;;;;21.50;48.10;;;;;;1526706;77;713;-65
2021/12/31 04:01:56;;;;;;;;;;;21.50;48.00;;;;;;1526510;78;719;-66
2021/12/31 04:03:58;;;;;;;;;;;21.40;47.80;;;;;;1526897;76;1119;-65
2021/12/31 04:06:00;;;;;;;;;;;21.40;47.90;;;;;;1563271;76;722;-65
2021/12/31 04:08:02;;;;;;;;;;;21.40;47.90;;;;;;1547712;76;734;-65
2021/12/31 04:10:04;;;;;;;;;;;21.40;47.90;;;;;;1559944;76;724;-65
2021/12/31 04:12:06;;;;;;;;;;;21.40;47.80;;;;;;1562973;76;777;-65
2021/12/31 04:14:08;;;;;;;;;;;21.40;47.90;;;;;;1563005;76;1124;-65
2021/12/31 04:16:10;;;;;;;;;;;21.40;47.90;;;;;;1563052;76;702;-65
2021/12/31 04:18:12;;;;;;;;;;;21.40;47.80;;;;;;1562882;76;1934;-65
2021/12/31 04:20:31;;;;;;;;;;;21.40;47.80;;;;;;1563080;76;775;-65
2021/12/31 04:22:26;;;;;;;;;;;21.50;47.90;;;;;;1560438;76;1672;-65
2021/12/31 04:24:51;;;;;;;;;;;21.40;47.80;;;;;;1562476;76;1605;-65
2021/12/31 04:26:30;;;;;;;;;;;21.50;47.90;;;;;;1558221;76;1242;-65
2021/12/31 04:28:32;;;;;;;;;;;21.50;48.00;;;;;;1563039;76;764;-67
2021/12/31 04:30:34;;;;;;;;;;;21.40;47.80;;;;;;1563059;76;796;-65
2021/12/31 04:32:36;;;;;;;;;;;21.50;48.00;;;;;;1563085;76;726;-65
2021/12/31 04:34:38;;;;;;;;;;;21.40;47.90;;;;;;1563003;76;1034;-65
2021/12/31 04:36:39;;;;;;;;;;;21.40;47.80;;;;;;1563069;76;901;-65
2021/12/31 04:38:41;;;;;;;;;;;21.40;47.80;;;;;;1562977;76;1942;-65
2021/12/31 04:40:43;;;;;;;;;;;21.40;47.90;;;;;;1562977;76;698;-66
2021/12/31 04:42:47;;;;;;;;;;;21.40;47.90;;;;;;1562949;76;704;-65
2021/12/31 04:44:49;;;;;;;;;;;21.40;47.90;;;;;;1581997;73;2083;-64
2021/12/31 04:46:51;;;;;;;;;;;21.50;48.10;;;;;;1578390;75;735;-63
2021/12/31 04:48:53;;;;;;;;;;;21.40;47.80;;;;;;1589565;75;764;-63
2021/12/31 04:50:54;;;;;;;;;;;21.40;47.90;;;;;;1589596;75;766;-62
2021/12/31 04:52:56;;;;;;;;;;;21.40;47.90;;;;;;1589634;75;715;-63
2021/12/31 04:54:58;;;;;;;;;;;21.40;47.90;;;;;;1574000;75;1199;-63
2021/12/31 04:57:00;;;;;;;;;;;21.40;47.80;;;;;;1570954;76;659;-63
2021/12/31 04:59:02;;;;;;;;;;;21.50;48.00;;;;;;1570721;76;1946;-62
2021/12/31 05:01:04;;;;;;;;;;;21.40;47.90;;;;;;1570921;76;804;-64
2021/12/31 05:03:07;;;;;;;;;;;21.40;47.90;;;;;;1571082;76;732;-63
2021/12/31 05:05:09;;;;;;;;;;;21.40;47.90;;;;;;1554190;76;1055;-63
2021/12/31 05:07:10;;;;;;;;;;;21.50;48.10;;;;;;1543111;77;657;-64
2021/12/31 05:09:12;;;;;;;;;;;21.40;47.90;;;;;;1542999;76;715;-63
2021/12/31 05:11:14;;;;;;;;;;;21.40;47.90;;;;;;1543043;77;814;-62
2021/12/31 05:13:18;;;;;;;;;;;21.40;47.90;;;;;;1543160;77;720;-60
2021/12/31 05:15:26;;;;;;;;;;;21.50;48.10;;;;;;1542778;76;1669;-63
2021/12/31 05:17:23;;;;;;;;;;;21.50;48.00;;;;;;1542491;76;1929;-63
2021/12/31 05:19:25;;;;;;;;;;;21.50;48.10;;;;;;1543111;77;777;-64
2021/12/31 05:21:29;;;;;;;;;;;21.40;48.00;;;;;;1543087;76;704;-64
2021/12/31 05:23:31;;;;;;;;;;;21.40;47.90;;;;;;1542964;76;2096;-63
2021/12/31 05:25:33;;;;;;;;;;;21.40;47.90;;;;;;1543041;76;769;-62
2021/12/31 05:27:34;;;;;;;;;;;21.40;48.00;;;;;;1543065;76;715;-62
2021/12/31 05:29:36;;;;;;;;;;;21.40;47.90;;;;;;1543084;77;774;-62
2021/12/31 05:31:38;;;;;;;;;;;21.50;48.10;;;;;;1543214;77;734;-62
2021/12/31 05:33:40;;;;;;;;;;;21.40;47.90;;;;;;1543169;76;1122;-64
2021/12/31 05:35:42;;;;;;;;;;;21.50;48.00;;;;;;1542982;77;740;-64
2021/12/31 05:37:44;;;;;;;;;;;21.50;48.10;;;;;;1543168;76;1945;-63
2021/12/31 05:39:46;;;;;;;;;;;21.40;47.90;;;;;;1543181;77;795;-62
2021/12/31 05:41:48;;;;;;;;;;;21.50;48.00;;;;;;1543248;77;734;-62
2021/12/31 05:43:49;;;;;;;;;;;21.40;47.90;;;;;;1543197;77;1130;-62
2021/12/31 05:45:51;;;;;;;;;;;21.40;47.90;;;;;;1533853;77;788;-62
2021/12/31 05:47:54;;;;;;;;;;;21.40;47.90;;;;;;1533229;77;696;-63
2021/12/31 05:49:56;;;;;;;;;;;21.50;48.10;;;;;;1533183;76;736;-63
2021/12/31 05:51:58;;;;;;;;;;;21.40;47.90;;;;;;1533252;77;742;-62
2021/12/31 05:54:00;;;;;;;;;;;21.40;47.90;;;;;;1533282;77;1150;-62
2021/12/31 05:56:01;;;;;;;;;;;21.40;47.90;;;;;;1533226;77;786;-63
2021/12/31 05:58:03;;;;;;;;;;;21.40;47.90;;;;;;1533252;77;1947;-62
2021/12/31 06:00:06;;;;;;;;;;;21.40;47.80;;;;;;1533314;77;781;-60
2021/12/31 06:02:07;;;;;;;;;;;21.50;48.00;;;;;;1533202;77;720;-60
2021/12/31 06:04:09;;;;;;;;;;;21.40;47.90;;;;;;1533319;77;1159;-61
2021/12/31 06:06:11;;;;;;;;;;;21.40;47.90;;;;;;1533203;77;903;-61
2021/12/31 06:08:13;;;;;;;;;;;21.40;48.00;;;;;;1533305;77;763;-61
2021/12/31 06:10:15;;;;;;;;;;;21.40;47.90;;;;;;1533310;77;741;-61
2021/12/31 06:12:17;;;;;;;;;;;21.50;48.10;;;;;;1553342;76;664;-61
2021/12/31 06:14:19;;;;;;;;;;;21.40;47.90;;;;;;1554768;76;1131;-61
2021/12/31 06:16:21;;;;;;;;;;;21.50;48.00;;;;;;1554621;76;797;-62
2021/12/31 06:18:22;;;;;;;;;;;21.40;47.90;;;;;;1554748;76;1931;-61
2021/12/31 06:20:28;;;;;;;;;;;21.40;47.90;;;;;;1554871;76;722;-61
2021/12/31 06:22:29;;;;;;;;;;;21.40;47.90;;;;;;1554206;76;1675;-61
2021/12/31 06:24:31;;;;;;;;;;;21.40;47.90;;;;;;1554652;76;1166;-61
2021/12/31 06:26:33;;;;;;;;;;;21.40;48.00;;;;;;1554608;76;723;-61
2021/12/31 06:28:35;;;;;;;;;;;21.40;47.90;;;;;;1554755;76;716;-60
2021/12/31 06:30:37;;;;;;;;;;;21.50;48.10;;;;;;1554757;76;761;-61
2021/12/31 06:32:38;;;;;;;;;;;21.50;48.00;;;;;;1554572;76;706;-61
2021/12/31 06:34:40;;;;;;;;;;;21.40;47.90;;;;;;1554736;76;1130;-61
2021/12/31 06:36:42;;;;;;;;;;;21.50;48.10;;;;;;1554514;76;665;-60
2021/12/31 06:38:44;;;;;;;;;;;21.50;48.00;;;;;;1554627;76;1931;-61
2021/12/31 06:40:46;;;;;;;;;;;21.40;47.90;;;;;;1554774;76;798;-63
2021/12/31 06:42:48;;;;;;;;;;;21.40;47.90;;;;;;1554557;76;743;-61
2021/12/31 06:44:50;;;;;;;;;;;21.40;47.90;;;;;;1554612;76;1130;-61
2021/12/31 06:46:51;;;;;;;;;;;21.50;48.00;;;;;;1554604;76;592;-60
2021/12/31 06:48:53;;;;;;;;;;;21.40;47.90;;;;;;1554732;76;789;-60
2021/12/31 06:50:55;;;;;;;;;;;21.50;48.00;;;;;;1554758;76;773;-61
2021/12/31 06:52:57;;;;;;;;;;;21.40;47.90;;;;;;1554657;76;681;-61
2021/12/31 06:54:59;;;;;;;;;;;21.50;48.00;;;;;;1554723;76;1122;-61
2021/12/31 06:57:01;;;;;;;;;;;21.50;48.00;;;;;;1554684;76;783;-63
2021/12/31 06:59:03;;;;;;;;;;;21.40;47.90;;;;;;1554625;76;1935;-61
2021/12/31 07:01:05;;;;;;;;;;;21.50;48.00;;;;;;1554742;76;736;-60
2021/12/31 07:03:07;;;;;;;;;;;21.50;48.00;;;;;;1554694;76;788;-61
2021/12/31 07:05:09;;;;;;;;;;;21.50;48.00;;;;;;1554595;76;1118;-60
2021/12/31 07:07:11;;;;;;;;;;;21.40;47.80;;;;;;1554666;76;723;-61
2021/12/31 07:09:13;;;;;;;;;;;21.50;48.00;;;;;;1554653;76;772;-60
2021/12/31 07:11:17;;;;;;;;;;;21.40;47.90;;;;;;1545611;76;774;-60
2021/12/31 07:13:19;;;;;;;;;;;21.50;48.10;;;;;;1533121;77;1138;-61
2021/12/31 07:15:20;;;;;;;;;;;21.40;47.90;;;;;;1533249;77;659;-61
2021/12/31 07:17:23;;;;;;;;;;;21.50;48.00;;;;;;1533248;77;777;-61
2021/12/31 07:19:24;;;;;;;;;;;21.40;47.90;;;;;;1533107;77;1900;-63
2021/12/31 07:21:26;;;;;;;;;;;21.40;47.90;;;;;;1533211;77;726;-61
2021/12/31 07:23:28;;;;;;;;;;;21.50;48.10;;;;;;1533267;77;1147;-61
2021/12/31 07:25:31;;;;;;;;;;;21.50;48.10;;;;;;1533232;77;781;-61
2021/12/31 07:27:33;;;;;;;;;;;21.40;47.90;;;;;;1533208;77;711;-60
2021/12/31 07:29:34;;;;;;;;;;;21.40;47.90;;;;;;1533133;77;690;-61
2021/12/31 07:31:36;;;;;;;;;;;21.50;48.00;;;;;;1533304;77;765;-60
2021/12/31 07:33:38;;;;;;;;;;;21.40;47.90;;;;;;1533185;77;1107;-60
2021/12/31 07:35:40;;;;;;;;;;;21.40;47.90;;;;;;1533190;77;692;-61
2021/12/31 07:37:43;;;;;;;;;;;21.50;48.00;;;;;;1533268;77;705;-61
2021/12/31 07:39:48;;;;;;;;;;;21.50;48.00;;;;;;1533140;77;1912;-61
2021/12/31 07:41:50;;;;;;;;;;;21.50;48.00;;;;;;1533182;77;751;-61
2021/12/31 07:43:52;;;;;;;;;;;21.40;47.80;;;;;;1533082;76;1153;-61
2021/12/31 07:45:54;;;;;;;;;;;21.40;47.90;;;;;;1533200;77;826;-63
2021/12/31 07:47:56;;;;;;;;;;;21.50;48.00;;;;;;1533215;77;745;-61
2021/12/31 07:49:58;;;;;;;;;;;21.40;47.90;;;;;;1533258;77;732;-61
2021/12/31 07:52:00;;;;;;;;;;;21.40;47.90;;;;;;1533296;77;722;-61
2021/12/31 07:54:02;;;;;;;;;;;21.40;47.90;;;;;;1533164;77;1151;-61
2021/12/31 07:56:04;;;;;;;;;;;21.50;48.00;;;;;;1533166;77;737;-61
2021/12/31 07:58:06;;;;;;;;;;;21.40;47.90;;;;;;1533122;77;748;-61
2021/12/31 08:00:08;;;;;;;;;;;21.50;48.10;;;;;;1533113;77;1904;-60
2021/12/31 08:02:10;;;;;;;;;;;21.50;48.00;;;;;;1533228;76;738;-60
2021/12/31 08:04:12;;;;;;;;;;;21.50;48.00;;;;;;1533324;77;1115;-60
2021/12/31 08:06:14;;;;;;;;;;;21.50;48.00;;;;;;1533249;77;1013;-61
2021/12/31 08:08:16;;;;;;;;;;;21.40;47.90;;;;;;1533247;77;665;-61
2021/12/31 08:10:18;;;;;;;;;;;21.50;48.10;;;;;;1533280;77;673;-61
2021/12/31 08:12:20;;;;;;;;;;;21.40;47.90;;;;;;1553813;76;754;-63
2021/12/31 08:14:21;;;;;;;;;;;21.50;48.10;;;;;;1554619;76;1145;-60
2021/12/31 08:16:23;;;;;;;;;;;21.50;48.10;;;;;;1554642;76;792;-61
2021/12/31 08:18:25;;;;;;;;;;;21.50;48.10;;;;;;1554596;76;718;-61
2021/12/31 08:20:27;;;;;;;;;;;21.50;48.10;;;;;;1554524;76;1930;-60
2021/12/31 08:22:29;;;;;;;;;;;21.50;48.00;;;;;;1554699;76;721;-61
2021/12/31 08:24:31;;;;;;;;;;;21.50;48.00;;;;;;1554671;76;1090;-61
2021/12/31 08:26:33;;;;;;;;;;;21.40;47.90;;;;;;1554627;76;723;-61
2021/12/31 08:28:35;;;;;;;;;;;21.50;48.10;;;;;;1554733;76;807;-62
2021/12/31 08:30:36;;;;;;;;;;;21.50;48.10;;;;;;1554556;76;745;-60
2021/12/31 08:32:38;;;;;;;;;;;21.50;48.10;;;;;;1554621;76;779;-61
2021/12/31 08:34:40;;;;;;;;;;;21.50;48.00;;;;;;1554675;76;1082;-62
2021/12/31 08:36:42;;;;;;;;;;;21.50;48.00;;;;;;1554580;76;639;-61
2021/12/31 08:38:44;;;;;;;;;;;21.50;48.00;;;;;;1554677;76;1935;-61
2021/12/31 08:40:46;;;;;;;;;;;21.40;47.90;;;;;;1554645;76;798;-61
2021/12/31 08:42:48;;;;;;;;;;;21.50;48.00;;;;;;1554660;76;736;-62
2021/12/31 08:44:49;;;;;;;;;;;21.50;48.00;;;;;;1554761;76;1085;-60
2021/12/31 08:46:51;;;;;;;;;;;21.50;48.00;;;;;;1554512;76;784;-60
2021/12/31 08:48:53;;;;;;;;;;;21.40;47.80;;;;;;1554661;76;770;-60
2021/12/31 08:50:55;;;;;;;;;;;21.50;48.00;;;;;;1554554;76;726;-61
2021/12/31 08:52:57;;;;;;;;;;;21.50;47.90;;;;;;1554696;76;753;-61
2021/12/31 08:54:59;;;;;;;;;;;21.50;48.00;;;;;;1554619;76;1133;-61
2021/12/31 08:57:01;;;;;;;;;;;21.50;47.90;;;;;;1554697;76;563;-60
2021/12/31 08:59:03;;;;;;;;;;;21.50;48.00;;;;;;1525474;78;1913;-61
2021/12/31 09:01:05;;;;;;;;;;;21.50;48.00;;;;;;1554481;76;795;-63
2021/12/31 09:03:07;;;;;;;;;;;21.50;48.00;;;;;;1554706;76;729;-61
2021/12/31 09:05:09;;;;;;;;;;;21.50;48.00;;;;;;1541823;76;1102;-61
2021/12/31 09:07:11;;;;;;;;;;;21.50;48.10;;;;;;1533076;77;730;-60
2021/12/31 09:09:12;;;;;;;;;;;21.50;48.00;;;;;;1533298;76;719;-60
2021/12/31 09:11:15;;;;;;;;;;;21.50;47.90;;;;;;1533411;77;723;-61
2021/12/31 09:13:16;;;;;;;;;;;21.50;48.00;;;;;;1533404;76;772;-61
2021/12/31 09:15:18;;;;;;;;;;;21.50;48.00;;;;;;1533358;76;1182;-60
2021/12/31 09:17:22;;;;;;;;;;;21.50;48.00;;;;;;1533454;76;680;-61
2021/12/31 09:19:24;;;;;;;;;;;21.50;48.00;;;;;;1533346;77;1942;-60
2021/12/31 09:21:26;;;;;;;;;;;21.50;48.00;;;;;;1533433;77;734;-61
2021/12/31 09:23:27;;;;;;;;;;;21.50;48.00;;;;;;1533440;77;1106;-59
2021/12/31 09:25:29;;;;;;;;;;;21.50;48.00;;;;;;1533337;77;711;-61
2021/12/31 09:27:31;;;;;;;;;;;21.50;48.00;;;;;;1533328;77;730;-61
2021/12/31 09:29:33;;;;;;;;;;;21.50;48.00;;;;;;1533389;77;765;-61
2021/12/31 09:31:35;;;;;;;;;;;21.50;47.90;;;;;;1533348;77;732;-62
2021/12/31 09:33:37;;;;;;;;;;;21.50;48.00;;;;;;1533358;77;1126;-61
2021/12/31 09:35:41;;;;;;;;;;;21.50;48.00;;;;;;1533301;76;794;-61
2021/12/31 09:37:43;;;;;;;;;;;21.50;48.00;;;;;;1533366;77;706;-63
2021/12/31 09:39:45;;;;;;;;;;;21.50;48.00;;;;;;1533400;77;1941;-60
2021/12/31 09:41:47;;;;;;;;;;;21.50;48.00;;;;;;1533362;77;774;-60
2021/12/31 09:43:50;;;;;;;;;;;21.50;48.00;;;;;;1533315;77;1166;-60
2021/12/31 09:45:53;;;;;;;;;;;21.50;48.00;;;;;;1533287;77;690;-61
2021/12/31 09:47:59;;;;;;;;;;;21.50;48.00;;;;;;1533251;76;762;-60
2021/12/31 09:49:58;;;;;;;;;;;21.50;48.00;;;;;;1532959;77;1610;-60
2021/12/31 09:52:00;;;;;;;;;;;21.50;48.00;;;;;;1533499;77;683;-62
2021/12/31 09:54:03;;;;;;;;;;;21.50;48.00;;;;;;1533297;77;1170;-60
2021/12/31 09:56:06;;;;;;;;;;;21.50;48.00;;;;;;1533291;76;704;-61
2021/12/31 09:58:09;;;;;;;;;;;21.50;48.00;;;;;;1533351;77;704;-61
2021/12/31 10:00:11;;;;;;;;;;;21.50;48.00;;;;;;1533337;77;1925;-61
2021/12/31 10:02:13;;;;;;;;;;;21.50;48.00;;;;;;1533376;77;898;-61
2021/12/31 10:04:15;;;;;;;;;;;21.50;48.00;;;;;;1536409;76;1143;-60
2021/12/31 10:06:17;;;;;;;;;;;21.60;48.00;;;;;;1554879;76;799;-60
2021/12/31 10:08:22;;;;;;;;;;;21.60;48.00;;;;;;1554856;76;808;-61
2021/12/31 10:10:25;;;;;;;;;;;21.50;48.00;;;;;;1554921;76;761;-60
2021/12/31 10:12:26;;;;;;;;;;;21.60;48.00;;;;;;1554842;76;745;-61
2021/12/31 10:14:39;;;;;;;;;;;21.60;48.00;;;;;;1554830;76;1142;-61
2021/12/31 10:16:41;;;;;;;;;;;21.60;48.00;;;;;;1554794;76;976;-60
2021/12/31 10:18:43;;;;;;;;;;;21.60;48.00;;;;;;1554824;76;782;-60
2021/12/31 10:20:50;;;;;;;;;;;21.60;48.00;;;;;;1554691;76;1899;-61
2021/12/31 10:22:52;;;;;;;;;;;21.60;47.90;;;;;;1554618;76;1450;-63
2021/12/31 10:24:54;;;;;;;;;;;21.60;48.00;;;;;;1525395;78;1114;-61
2021/12/31 10:27:00;;;;;;;;;;;21.60;48.00;;;;;;1554706;76;728;-60
2021/12/31 10:29:03;;;;;;;;;;;21.60;48.00;;;;;;1554707;76;625;-61
2021/12/31 10:31:11;;;;;;;;;;;21.60;48.00;;;;;;1554631;76;769;-62
2021/12/31 10:33:13;;;;;;;;;;;21.60;48.00;;;;;;1554693;76;784;-62
2021/12/31 10:35:19;;;;;;;;;;;21.60;48.00;;;;;;1554571;76;1082;-63
2021/12/31 10:37:23;;;;;;;;;;;21.60;48.00;;;;;;1554648;76;711;-62
2021/12/31 10:39:26;;;;;;;;;;;21.60;48.00;;;;;;1554578;76;1915;-62
2021/12/31 10:41:28;;;;;;;;;;;21.60;48.00;;;;;;1554708;76;800;-61
2021/12/31 10:46:04;;;;;;;;;;;21.60;48.00;;;;;;1550004;76;1541;-66
2021/12/31 10:48:07;;;;;;;;;;;21.60;48.00;;;;;;1555898;76;864;-66
2021/12/31 10:50:10;;;;;;;;;;;21.60;48.00;;;;;;1563183;76;639;-66
2021/12/31 10:52:16;;;;;;;;;;;21.60;48.00;;;;;;1563389;76;728;-66
2021/12/31 10:54:28;;;;;;;;;;;21.60;47.90;;;;;;1543878;75;1616;-66
2021/12/31 10:56:23;;;;;;;;;;;21.70;48.10;;;;;;1586662;75;1646;-65
2021/12/31 10:58:27;;;;;;;;;;;21.60;48.00;;;;;;1554982;76;737;-66
2021/12/31 11:00:30;;;;;;;;;;;21.60;47.90;;;;;;1571280;75;1912;-66
2021/12/31 11:02:32;;;;;;;;;;;21.60;47.90;;;;;;1562235;75;1136;-66
2021/12/31 11:04:34;;;;;;;;;;;21.60;47.90;;;;;;1560564;76;1168;-67
2021/12/31 11:06:36;;;;;;;;;;;21.70;48.10;;;;;;1559616;76;668;-67
2021/12/31 11:08:38;;;;;;;;;;;21.70;48.00;;;;;;1559530;75;715;-66
2021/12/31 11:10:40;;;;;;;;;;;21.60;47.90;;;;;;1559722;76;722;-66
2021/12/31 11:12:46;;;;;;;;;;;21.60;47.90;;;;;;1559733;76;722;-67
2021/12/31 11:14:46;;;;;;;;;;;21.60;47.90;;;;;;1559295;76;1810;-67
2021/12/31 11:16:48;;;;;;;;;;;21.70;48.00;;;;;;1559706;76;677;-67
2021/12/31 11:18:50;;;;;;;;;;;21.70;48.00;;;;;;1535377;77;1208;-66
2021/12/31 11:20:53;;;;;;;;;;;21.70;47.90;;;;;;1559653;76;1935;-67
2021/12/31 11:22:55;;;;;;;;;;;21.70;48.00;;;;;;1559748;76;660;-66
2021/12/31 11:25:15;;;;;;;;;;;21.70;47.90;;;;;;1559745;76;1099;-65
2021/12/31 11:27:42;;;;;;;;;;;21.70;47.90;;;;;;1559804;76;656;-66
2021/12/31 11:29:39;;;;;;;;;;;21.70;48.00;;;;;;1558536;76;953;-66
2021/12/31 11:31:41;;;;;;;;;;;21.70;48.00;;;;;;1559713;75;699;-66
2021/12/31 11:33:44;;;;;;;;;;;21.70;48.00;;;;;;1559685;76;1090;-66
2021/12/31 11:36:02;;;;;;;;;;;21.70;48.00;;;;;;1559593;76;696;-68
2021/12/31 11:38:06;;;;;;;;;;;21.70;48.00;;;;;;1559722;76;703;-66
2021/12/31 11:40:25;;;;;;;;;;;21.70;48.00;;;;;;1559191;76;1923;-66
2021/12/31 11:42:26;;;;;;;;;;;21.70;48.00;;;;;;1491004;78;1037;-66
2021/12/31 11:44:28;;;;;;;;;;;21.60;48.00;;;;;;1517874;76;1160;-66
2021/12/31 11:46:32;;;;;;;;;;;21.70;48.00;;;;;;1559657;76;699;-66
2021/12/31 11:48:48;;;;;;;;;;;21.70;48.10;;;;;;1559691;76;692;-66
2021/12/31 11:51:04;;;;;;;;;;;21.70;48.00;;;;;;1559708;76;634;-66
2021/12/31 11:53:06;;;;;;;;;;;21.70;48.00;;;;;;1558655;76;1136;-67
2021/12/31 11:55:17;;;;;;;;;;;21.70;48.00;;;;;;1559512;75;1129;-68
2021/12/31 11:57:21;;;;;;;;;;;21.70;48.10;;;;;;1559627;76;896;-66
2021/12/31 11:59:24;;;;;;;;;;;21.70;48.10;;;;;;1535343;77;1259;-66
2021/12/31 12:01:37;;;;;;;;;;;21.70;48.10;;;;;;1537832;77;1908;-67
2021/12/31 12:03:39;;;;;;;;;;;21.70;48.10;;;;;;1564360;76;762;-67
2021/12/31 12:05:41;;;;;;;;;;;21.70;48.00;;;;;;1564322;76;763;-66
2021/12/31 12:07:47;;;;;;;;;;;21.70;48.00;;;;;;1536575;77;778;-65
2021/12/31 12:09:51;;;;;;;;;;;21.70;48.00;;;;;;1522903;78;737;-67
2021/12/31 12:12:05;;;;;;;;;;;21.70;48.00;;;;;;1565165;76;814;-66
2021/12/31 12:14:25;;;;;;;;;;;21.70;48.00;;;;;;1553064;76;1149;-66
2021/12/31 12:16:35;;;;;;;;;;;21.70;48.00;;;;;;1553119;76;781;-67